Kezdőlap
METAR-TAF:

METAR-TAF

Repülőterek :

Xi'an, Kína

földrajzi szélesség: 34-26N, földrajzi hosszúság: 108-45E, magasság: 479 m

Jelenlegi meteorológiai megfigyelések

A jelentés 24 perccel ezelõtt készült, 21:00 UTC
Szélcsend
Hőmérséklet -2°C
Páratartalom 93%
Légköri nyomás 1025 hPa
Látótávolság: 7000 m

METAR: ZLXY 182100Z 00000MPS 7000 NSC M02/M03 Q1025 NOSIG

Idő: 05:24 (21:24 UTC)

Előrejelzés

A jelentés 6 órával és 19 perccel ezelõtt készült, 15:05 UTC
Az előrejelzés 18-én 18 óra UTC és 19-én 18 óra UTC között érvényes
Észak-északkeleti szél 6 kt
Látótávolság: 4000 m
Száraz légköri homály

TAF: ZLXY 181505Z 1818/1918 03003MPS 4000 HZ NSC TX10/1908Z TNM03/22Z

Meteorológiai megfigyelések és előrejelzések több, mint 4000 repülőtéren (METAR és TAF jelentéseket).

A térképen piros és sárga pontok jelzik az elérhető meteorológiai állomásokat.

Mozgassa az egeret a pont fölött, hogy megjelenjen az állomás neve.

Azután kattintson az időjárási megfigyelések és előrejelzések megtekintéséhez.

A térkép megváltoztatása: kattintson a fekete keresztel jelölt zöld gombra ráközelítéshez, a vonallal jelölt zöld gombra távolításhoz, vagy a zöld nyilakra a szomszédos térképek eléréséhez.


METAR-TAF: